Yuma, AZ

6:21 PM MST on February 09, 2016 (GMT -0700)
Caballero Park | | Change Station
CLOSE
Current Station
Personal Weather Station
Location: Yuma, AZ
Elevation: 200 ft
Nearby Weather Stations

Elev 200 ft 32.67 °N, 114.63 °W | Updated 5 seconds ago

Clear
Clear
79.0 °F
Feels Like 78 °F
N
6.9
Wind Variable Wind from ESE
Gusts 6.9 mph

Today
High -- | Low -- °F
--% Chance of Precip.
Yesterday
High -- | Low -- °F
Precip. -- in
Pressure 30.08 in
Visibility 10.0 miles
Clouds Clear
Heat Index 78 °F
Dew Point 32 °F
Humidity 18%
Rainfall 0.00 in
Snow Depth Not available.
7:27 AM 6:18 PM
Waxing Crescent, 3% visible
METAR KNYL 100057Z 35008KT 10SM CLR 27/M04 A3008 RMK AO2 SLP185 T02721044
Pressure 30.08 in
Visibility 10.0 miles
Clouds Clear
Heat Index 78 °F
Dew Point 32 °F
Humidity 18%
Rainfall 0.00 in
Snow Depth Not available.
7:27 AM 6:18 PM
Waxing Crescent, 3% visible
METAR KNYL 100057Z 35008KT 10SM CLR 27/M04 A3008 RMK AO2 SLP185 T02721044

10-Day Weather Forecast

Almanac

Astronomy

Feb. 09, 2016 Rise Set
Actual Time
Civil Twilight
Nautical Twilight
Astronomical Twilight
Moon
Length of Visible Light
Length of Day
Tomorrow will be .
, % of the Moon is Illuminated

Today's Extremes

State Highs State Lows

Community

WunderPhotos

Upload Photos

1,891,758 photos uploaded!

WunderBlog® & News

Nearby

Air Quality

  Air Quality AQ Index Pollutant
Not available.

Snow Depth

Station Depth Elevation

Earthquake Activity

City Distance Mag. Time & Date
Minimum magnitude displayed is 2.5.

Coastal Water Temperatures

Place Temperature

Stations

Nearby Weather Stations

Station Location Temp. Windchill Dew Point Humidity Wind Precip. Elev Updated Type
                   

Watches & Warnings

There are currently no watches in effect.